sensor_id;sensor_type;location;lat;lon;timestamp;pressure;altitude;pressure_sealevel;temperature;humidity
77216;BME280;66210;53.282;9.864;2023-09-08T00:00:43;101569.84;;;17.05;75.01
77216;BME280;66210;53.282;9.864;2023-09-08T00:03:09;101579.25;;;17.04;74.48
77216;BME280;66210;53.282;9.864;2023-09-08T00:05:36;101570.50;;;16.99;74.38
77216;BME280;66210;53.282;9.864;2023-09-08T00:08:03;101576.56;;;17.01;74.48
77216;BME280;66210;53.282;9.864;2023-09-08T00:10:30;101579.00;;;16.97;74.96
77216;BME280;66210;53.282;9.864;2023-09-08T00:12:56;101576.41;;;16.95;74.71
77216;BME280;66210;53.282;9.864;2023-09-08T00:15:23;101577.81;;;16.87;75.28
77216;BME280;66210;53.282;9.864;2023-09-08T00:17:49;101568.00;;;16.77;75.58
77216;BME280;66210;53.282;9.864;2023-09-08T00:20:16;101580.13;;;16.79;74.99
77216;BME280;66210;53.282;9.864;2023-09-08T00:22:43;101577.47;;;16.78;75.17
77216;BME280;66210;53.282;9.864;2023-09-08T00:25:09;101574.84;;;16.76;74.98
77216;BME280;66210;53.282;9.864;2023-09-08T00:27:36;101578.28;;;16.77;75.57
77216;BME280;66210;53.282;9.864;2023-09-08T00:30:02;101584.25;;;16.76;75.31
77216;BME280;66210;53.282;9.864;2023-09-08T00:32:30;101579.06;;;16.74;75.04
77216;BME280;66210;53.282;9.864;2023-09-08T00:34:57;101564.22;;;16.66;75.47
77216;BME280;66210;53.282;9.864;2023-09-08T00:37:23;101567.63;;;16.65;75.49
77216;BME280;66210;53.282;9.864;2023-09-08T00:39:50;101569.34;;;16.66;75.42
77216;BME280;66210;53.282;9.864;2023-09-08T00:42:17;101560.00;;;16.68;75.47
77216;BME280;66210;53.282;9.864;2023-09-08T00:44:43;101565.91;;;16.65;75.62
77216;BME280;66210;53.282;9.864;2023-09-08T00:47:11;101551.13;;;16.58;75.78
77216;BME280;66210;53.282;9.864;2023-09-08T00:49:38;101558.84;;;16.58;76.15
77216;BME280;66210;53.282;9.864;2023-09-08T00:52:05;101563.88;;;16.55;76.05
77216;BME280;66210;53.282;9.864;2023-09-08T00:54:31;101556.09;;;16.53;76.04
77216;BME280;66210;53.282;9.864;2023-09-08T00:57:01;101546.47;;;16.46;75.90
77216;BME280;66210;53.282;9.864;2023-09-08T00:59:31;101556.75;;;16.48;76.65
77216;BME280;66210;53.282;9.864;2023-09-08T01:01:59;101556.72;;;16.46;75.94
77216;BME280;66210;53.282;9.864;2023-09-08T01:04:25;101538.63;;;16.43;76.18
77216;BME280;66210;53.282;9.864;2023-09-08T01:06:53;101550.69;;;16.46;75.66
77216;BME280;66210;53.282;9.864;2023-09-08T01:09:20;101554.16;;;16.46;75.78
77216;BME280;66210;53.282;9.864;2023-09-08T01:11:47;101551.59;;;16.46;75.84
77216;BME280;66210;53.282;9.864;2023-09-08T01:14:17;101556.72;;;16.46;75.72
77216;BME280;66210;53.282;9.864;2023-09-08T01:16:45;101546.41;;;16.45;75.74
77216;BME280;66210;53.282;9.864;2023-09-08T01:19:13;101553.22;;;16.44;75.74
77216;BME280;66210;53.282;9.864;2023-09-08T01:21:56;101545.41;;;16.41;75.72
77216;BME280;66210;53.282;9.864;2023-09-08T01:25:01;101543.66;;;16.40;75.88
77216;BME280;66210;53.282;9.864;2023-09-08T01:27:33;101539.38;;;16.39;76.00
77216;BME280;66210;53.282;9.864;2023-09-08T01:30:02;101545.25;;;16.36;75.81
77216;BME280;66210;53.282;9.864;2023-09-08T01:32:32;101541.75;;;16.34;75.92
77216;BME280;66210;53.282;9.864;2023-09-08T01:34:59;101536.44;;;16.28;76.14
77216;BME280;66210;53.282;9.864;2023-09-08T01:37:26;101535.53;;;16.28;76.16
77216;BME280;66210;53.282;9.864;2023-09-08T01:39:53;101535.28;;;16.20;76.41
77216;BME280;66210;53.282;9.864;2023-09-08T01:42:20;101534.50;;;16.23;75.82
77216;BME280;66210;53.282;9.864;2023-09-08T01:44:47;101542.91;;;16.18;76.01
77216;BME280;66210;53.282;9.864;2023-09-08T01:47:14;101535.88;;;16.13;76.29
77216;BME280;66210;53.282;9.864;2023-09-08T01:49:40;101520.16;;;16.04;76.37
77216;BME280;66210;53.282;9.864;2023-09-08T01:52:07;101537.03;;;15.98;76.82
77216;BME280;66210;53.282;9.864;2023-09-08T01:54:34;101529.09;;;15.91;76.90
77216;BME280;66210;53.282;9.864;2023-09-08T01:57:01;101511.50;;;15.77;77.14
77216;BME280;66210;53.282;9.864;2023-09-08T01:59:27;101522.78;;;15.83;77.32
77216;BME280;66210;53.282;9.864;2023-09-08T02:01:54;101515.00;;;15.79;77.64
77216;BME280;66210;53.282;9.864;2023-09-08T02:04:21;101512.38;;;15.78;77.77
77216;BME280;66210;53.282;9.864;2023-09-08T02:06:48;101501.19;;;15.76;77.76
77216;BME280;66210;53.282;9.864;2023-09-08T02:09:15;101507.31;;;15.79;77.63
77216;BME280;66210;53.282;9.864;2023-09-08T02:11:41;101496.97;;;15.76;77.23
77216;BME280;66210;53.282;9.864;2023-09-08T02:14:08;101496.97;;;15.76;77.40
77216;BME280;66210;53.282;9.864;2023-09-08T02:16:35;101501.25;;;15.77;77.30
77216;BME280;66210;53.282;9.864;2023-09-08T02:19:02;101496.03;;;15.74;77.18
77216;BME280;66210;53.282;9.864;2023-09-08T02:21:28;101500.31;;;15.75;77.38
77216;BME280;66210;53.282;9.864;2023-09-08T02:23:55;101502.13;;;15.78;77.31
77216;BME280;66210;53.282;9.864;2023-09-08T02:26:22;101500.16;;;15.71;77.19
77216;BME280;66210;53.282;9.864;2023-09-08T02:28:48;101500.31;;;15.75;76.83
77216;BME280;66210;53.282;9.864;2023-09-08T02:31:15;101506.28;;;15.74;76.90
77216;BME280;66210;53.282;9.864;2023-09-08T02:33:41;101507.09;;;15.73;77.17
77216;BME280;66210;53.282;9.864;2023-09-08T02:36:08;101507.91;;;15.72;77.07
77216;BME280;66210;53.282;9.864;2023-09-08T02:38:35;101509.59;;;15.72;77.08
77216;BME280;66210;53.282;9.864;2023-09-08T02:41:02;101507.63;;;15.66;77.47
77216;BME280;66210;53.282;9.864;2023-09-08T02:43:29;101514.63;;;15.70;77.16
77216;BME280;66210;53.282;9.864;2023-09-08T02:45:56;101511.97;;;15.67;77.37
77216;BME280;66210;53.282;9.864;2023-09-08T02:48:24;101495.31;;;15.56;77.25
77216;BME280;66210;53.282;9.864;2023-09-08T02:50:50;101494.38;;;15.54;77.85
77216;BME280;66210;53.282;9.864;2023-09-08T02:53:17;101510.72;;;15.57;77.23
77216;BME280;66210;53.282;9.864;2023-09-08T02:55:45;101516.72;;;15.58;77.62
77216;BME280;66210;53.282;9.864;2023-09-08T02:58:12;101506.19;;;15.50;77.57
77216;BME280;66210;53.282;9.864;2023-09-08T03:00:38;101509.75;;;15.54;77.39
77216;BME280;66210;53.282;9.864;2023-09-08T03:03:05;101516.50;;;15.52;77.82
77216;BME280;66210;53.282;9.864;2023-09-08T03:05:32;101512.06;;;15.48;77.83
77216;BME280;66210;53.282;9.864;2023-09-08T03:07:58;101510.09;;;15.41;78.26
77216;BME280;66210;53.282;9.864;2023-09-08T03:10:25;101510.03;;;15.39;78.03
77216;BME280;66210;53.282;9.864;2023-09-08T03:12:54;101509.09;;;15.37;78.29
77216;BME280;66210;53.282;9.864;2023-09-08T03:15:20;101500.38;;;15.32;78.34
77216;BME280;66210;53.282;9.864;2023-09-08T03:17:47;101507.22;;;15.33;78.30
77216;BME280;66210;53.282;9.864;2023-09-08T03:20:14;101501.94;;;15.28;78.40
77216;BME280;66210;53.282;9.864;2023-09-08T03:22:40;101496.69;;;15.25;78.45
77216;BME280;66210;53.282;9.864;2023-09-08T03:25:07;101503.50;;;15.25;78.51
77216;BME280;66210;53.282;9.864;2023-09-08T03:27:34;101475.53;;;15.08;78.67
77216;BME280;66210;53.282;9.864;2023-09-08T03:30:00;101501.56;;;15.19;78.58
77216;BME280;66210;53.282;9.864;2023-09-08T03:32:27;101495.44;;;15.15;78.70
77216;BME280;66210;53.282;9.864;2023-09-08T03:34:55;101495.50;;;15.17;78.67
77216;BME280;66210;53.282;9.864;2023-09-08T03:37:22;101490.13;;;15.11;78.95
77216;BME280;66210;53.282;9.864;2023-09-08T03:39:48;101484.66;;;15.02;79.02
77216;BME280;66210;53.282;9.864;2023-09-08T03:42:15;101473.94;;;14.89;79.08
77216;BME280;66210;53.282;9.864;2023-09-08T03:44:41;101492.13;;;14.95;79.34
77216;BME280;66210;53.282;9.864;2023-09-08T03:47:08;101491.41;;;15.00;79.31
77216;BME280;66210;53.282;9.864;2023-09-08T03:49:34;101485.50;;;15.01;79.01
77216;BME280;66210;53.282;9.864;2023-09-08T03:52:01;101478.50;;;14.96;78.88
77216;BME280;66210;53.282;9.864;2023-09-08T03:54:28;101490.69;;;15.02;78.68
77216;BME280;66210;53.282;9.864;2023-09-08T03:56:54;101468.84;;;14.89;78.47
77216;BME280;66210;53.282;9.864;2023-09-08T03:59:21;101491.47;;;15.01;78.48
77216;BME280;66210;53.282;9.864;2023-09-08T04:01:47;101488.72;;;14.96;78.60
77216;BME280;66210;53.282;9.864;2023-09-08T04:04:14;101485.22;;;14.94;78.77
77216;BME280;66210;53.282;9.864;2023-09-08T04:06:41;101486.09;;;14.95;79.14
77216;BME280;66210;53.282;9.864;2023-09-08T04:09:07;101483.44;;;14.92;79.36
77216;BME280;66210;53.282;9.864;2023-09-08T04:11:34;101490.16;;;14.90;79.32
77216;BME280;66210;53.282;9.864;2023-09-08T04:14:01;101484.00;;;14.85;79.59
77216;BME280;66210;53.282;9.864;2023-09-08T04:16:28;101463.03;;;14.72;79.32
77216;BME280;66210;53.282;9.864;2023-09-08T04:18:55;101482.69;;;14.73;79.50
77216;BME280;66210;53.282;9.864;2023-09-08T04:21:22;101479.06;;;14.68;79.70
77216;BME280;66210;53.282;9.864;2023-09-08T04:23:49;101485.81;;;14.66;79.92
77216;BME280;66210;53.282;9.864;2023-09-08T04:26:16;101487.47;;;14.66;79.87
77216;BME280;66210;53.282;9.864;2023-09-08T04:28:43;101482.19;;;14.61;79.79
77216;BME280;66210;53.282;9.864;2023-09-08T04:31:09;101481.38;;;14.62;80.13
77216;BME280;66210;53.282;9.864;2023-09-08T04:33:36;101479.63;;;14.61;80.18
77216;BME280;66210;53.282;9.864;2023-09-08T04:36:04;101482.84;;;14.57;nan
77216;BME280;66210;53.282;9.864;2023-09-08T04:38:31;101474.91;;;14.51;80.27
77216;BME280;66210;53.282;9.864;2023-09-08T04:40:57;101469.66;;;14.48;80.50
77216;BME280;66210;53.282;9.864;2023-09-08T04:43:24;101470.66;;;14.51;80.13
77216;BME280;66210;53.282;9.864;2023-09-08T04:45:51;101475.78;;;14.51;80.21
77216;BME280;66210;53.282;9.864;2023-09-08T04:48:18;101471.41;;;14.49;80.58
77216;BME280;66210;53.282;9.864;2023-09-08T04:50:44;101480.06;;;14.52;80.38
77216;BME280;66210;53.282;9.864;2023-09-08T04:53:11;101473.22;;;14.51;80.40
77216;BME280;66210;53.282;9.864;2023-09-08T04:55:38;101467.06;;;14.46;80.87
77216;BME280;66210;53.282;9.864;2023-09-08T04:58:04;101463.75;;;14.49;80.69
77216;BME280;66210;53.282;9.864;2023-09-08T05:00:31;101470.66;;;14.51;80.63
77216;BME280;66210;53.282;9.864;2023-09-08T05:03:01;101474.00;;;14.50;80.81
77216;BME280;66210;53.282;9.864;2023-09-08T05:05:28;101466.50;;;14.53;80.69
77216;BME280;66210;53.282;9.864;2023-09-08T05:07:54;101474.25;;;14.55;80.73
77216;BME280;66210;53.282;9.864;2023-09-08T05:10:23;101472.78;;;14.60;80.70
77216;BME280;66210;53.282;9.864;2023-09-08T05:12:51;101471.94;;;14.61;80.73
77216;BME280;66210;53.282;9.864;2023-09-08T05:15:17;101462.66;;;14.63;81.02
77216;BME280;66210;53.282;9.864;2023-09-08T05:17:47;101467.94;;;14.68;80.84
77216;BME280;66210;53.282;9.864;2023-09-08T05:20:14;101465.34;;;14.66;80.80
77216;BME280;66210;53.282;9.864;2023-09-08T05:22:41;101450.19;;;14.71;80.37
77216;BME280;66210;53.282;9.864;2023-09-08T05:25:08;101461.00;;;14.86;80.35
77216;BME280;66210;53.282;9.864;2023-09-08T05:27:35;101458.72;;;14.92;79.75
77216;BME280;66210;53.282;9.864;2023-09-08T05:30:03;101450.34;;;14.96;79.72
77216;BME280;66210;53.282;9.864;2023-09-08T05:32:30;101452.66;;;15.11;79.53
77216;BME280;66210;53.282;9.864;2023-09-08T05:34:57;101452.13;;;15.20;79.49
77216;BME280;66210;53.282;9.864;2023-09-08T05:37:24;101448.06;;;15.25;79.37
77216;BME280;66210;53.282;9.864;2023-09-08T05:39:50;101454.78;;;15.46;78.93
77216;BME280;66210;53.282;9.864;2023-09-08T05:42:17;101453.59;;;15.60;78.75
77216;BME280;66210;53.282;9.864;2023-09-08T05:44:44;101442.78;;;15.67;78.24
77216;BME280;66210;53.282;9.864;2023-09-08T05:47:12;101438.97;;;15.78;78.39
77216;BME280;66210;53.282;9.864;2023-09-08T05:49:39;101451.56;;;15.96;78.01
77216;BME280;66210;53.282;9.864;2023-09-08T05:52:05;101449.16;;;16.01;77.92
77216;BME280;66210;53.282;9.864;2023-09-08T05:54:32;101446.69;;;16.04;77.81
77216;BME280;66210;53.282;9.864;2023-09-08T05:57:00;101449.50;;;16.12;77.51
77216;BME280;66210;53.282;9.864;2023-09-08T05:59:26;101448.78;;;16.14;77.23
77216;BME280;66210;53.282;9.864;2023-09-08T06:01:53;101450.59;;;16.18;77.18
77216;BME280;66210;53.282;9.864;2023-09-08T06:04:20;101455.84;;;16.21;77.59
77216;BME280;66210;53.282;9.864;2023-09-08T06:06:47;101451.50;;;16.19;77.20
77216;BME280;66210;53.282;9.864;2023-09-08T06:09:14;101455.94;;;16.25;77.57
77216;BME280;66210;53.282;9.864;2023-09-08T06:11:43;101457.56;;;16.23;77.67
77216;BME280;66210;53.282;9.864;2023-09-08T06:14:09;101451.75;;;16.27;76.88
77216;BME280;66210;53.282;9.864;2023-09-08T06:16:36;101451.81;;;16.30;77.28
77216;BME280;66210;53.282;9.864;2023-09-08T06:19:04;101460.34;;;16.29;77.44
77216;BME280;66210;53.282;9.864;2023-09-08T06:21:31;101449.16;;;16.27;77.21
77216;BME280;66210;53.282;9.864;2023-09-08T06:23:57;101457.78;;;16.29;77.48
77216;BME280;66210;53.282;9.864;2023-09-08T06:26:24;101444.53;;;16.16;78.04
77216;BME280;66210;53.282;9.864;2023-09-08T06:28:51;101457.69;;;16.26;77.44
77216;BME280;66210;53.282;9.864;2023-09-08T06:31:18;101462.09;;;16.30;77.66
77216;BME280;66210;53.282;9.864;2023-09-08T06:33:44;101450.88;;;16.26;77.81
77216;BME280;66210;53.282;9.864;2023-09-08T06:36:12;101452.09;;;16.37;77.53
77216;BME280;66210;53.282;9.864;2023-09-08T06:38:39;101463.31;;;16.41;77.52
77216;BME280;66210;53.282;9.864;2023-09-08T06:41:09;101454.06;;;16.45;77.59
77216;BME280;66210;53.282;9.864;2023-09-08T06:43:37;101457.59;;;16.48;77.77
77216;BME280;66210;53.282;9.864;2023-09-08T06:46:04;101460.34;;;16.54;77.69
77216;BME280;66210;53.282;9.864;2023-09-08T06:48:31;101455.44;;;16.60;77.21
77216;BME280;66210;53.282;9.864;2023-09-08T06:50:59;101459.84;;;16.65;77.17
77216;BME280;66210;53.282;9.864;2023-09-08T06:53:26;101460.22;;;16.77;76.71
77216;BME280;66210;53.282;9.864;2023-09-08T06:55:53;101457.19;;;16.87;76.59
77216;BME280;66210;53.282;9.864;2023-09-08T06:58:20;101457.41;;;16.95;76.59
77216;BME280;66210;53.282;9.864;2023-09-08T07:00:47;101450.59;;;16.95;76.74
77216;BME280;66210;53.282;9.864;2023-09-08T07:03:16;101454.16;;;17.00;76.64
77216;BME280;66210;53.282;9.864;2023-09-08T07:05:43;101455.09;;;17.02;76.83
77216;BME280;66210;53.282;9.864;2023-09-08T07:08:10;101452.72;;;17.09;76.99
77216;BME280;66210;53.282;9.864;2023-09-08T07:10:36;101455.56;;;17.18;76.81
77216;BME280;66210;53.282;9.864;2023-09-08T07:13:04;101446.88;;;17.14;77.10
77216;BME280;66210;53.282;9.864;2023-09-08T07:15:31;101458.56;;;17.32;76.74
77216;BME280;66210;53.282;9.864;2023-09-08T07:17:58;101454.41;;;17.37;76.52
77216;BME280;66210;53.282;9.864;2023-09-08T07:20:24;101446.72;;;17.37;76.30
77216;BME280;66210;53.282;9.864;2023-09-08T07:22:51;101453.03;;;17.48;77.09
77216;BME280;66210;53.282;9.864;2023-09-08T07:25:18;101450.84;;;17.60;76.43
77216;BME280;66210;53.282;9.864;2023-09-08T07:27:46;101450.38;;;17.75;76.21
77216;BME280;66210;53.282;9.864;2023-09-08T07:30:13;101457.56;;;17.85;76.10
77216;BME280;66210;53.282;9.864;2023-09-08T07:32:39;101451.88;;;17.97;75.68
77216;BME280;66210;53.282;9.864;2023-09-08T07:35:06;101449.66;;;18.10;75.51
77216;BME280;66210;53.282;9.864;2023-09-08T07:37:40;101447.22;;;18.16;74.96
77216;BME280;66210;53.282;9.864;2023-09-08T07:40:09;101450.97;;;18.28;75.23
77216;BME280;66210;53.282;9.864;2023-09-08T07:42:37;101450.41;;;18.39;75.02
77216;BME280;66210;53.282;9.864;2023-09-08T07:45:04;101444.63;;;18.47;74.74
77216;BME280;66210;53.282;9.864;2023-09-08T07:47:31;101436.31;;;18.59;74.65
77216;BME280;66210;53.282;9.864;2023-09-08T07:50:26;101442.00;;;18.81;74.33
77216;BME280;66210;53.282;9.864;2023-09-08T07:52:55;101440.59;;;18.94;73.81
77216;BME280;66210;53.282;9.864;2023-09-08T07:55:22;101436.50;;;19.03;73.84
77216;BME280;66210;53.282;9.864;2023-09-08T07:57:50;101435.94;;;19.17;73.83
77216;BME280;66210;53.282;9.864;2023-09-08T08:00:17;101426.63;;;19.23;73.31
77216;BME280;66210;53.282;9.864;2023-09-08T08:02:50;101440.75;;;19.41;73.12
77216;BME280;66210;53.282;9.864;2023-09-08T08:05:17;101434.06;;;19.50;72.73
77216;BME280;66210;53.282;9.864;2023-09-08T08:07:44;101440.41;;;19.65;72.45
77216;BME280;66210;53.282;9.864;2023-09-08T08:10:11;101436.34;;;19.76;72.24
77216;BME280;66210;53.282;9.864;2023-09-08T08:12:39;101434.84;;;19.87;72.20
77216;BME280;66210;53.282;9.864;2023-09-08T08:15:07;101417.78;;;19.94;71.63
77216;BME280;66210;53.282;9.864;2023-09-08T08:17:38;101427.59;;;20.15;71.24
77216;BME280;66210;53.282;9.864;2023-09-08T08:20:06;101422.59;;;20.23;71.19
77216;BME280;66210;53.282;9.864;2023-09-08T08:22:38;101427.16;;;20.39;71.25
77216;BME280;66210;53.282;9.864;2023-09-08T08:25:05;101423.88;;;20.48;70.98
77216;BME280;66210;53.282;9.864;2023-09-08T08:27:32;101431.91;;;20.63;70.83
77216;BME280;66210;53.282;9.864;2023-09-08T08:29:59;101435.50;;;20.76;70.91
77216;BME280;66210;53.282;9.864;2023-09-08T08:32:28;101434.06;;;20.93;69.76
77216;BME280;66210;53.282;9.864;2023-09-08T08:34:55;101432.63;;;21.14;69.55
77216;BME280;66210;53.282;9.864;2023-09-08T08:37:22;101431.31;;;21.42;67.83
77216;BME280;66210;53.282;9.864;2023-09-08T08:39:48;101425.63;;;21.74;67.36
77216;BME280;66210;53.282;9.864;2023-09-08T08:44:49;101429.03;;;22.60;64.13
77216;BME280;66210;53.282;9.864;2023-09-08T08:47:16;101424.03;;;22.86;63.79
77216;BME280;66210;53.282;9.864;2023-09-08T08:49:44;101414.75;;;23.19;62.77
77216;BME280;66210;53.282;9.864;2023-09-08T08:52:14;101427.84;;;23.47;61.47
77216;BME280;66210;53.282;9.864;2023-09-08T08:54:41;101427.03;;;23.63;60.43
77216;BME280;66210;53.282;9.864;2023-09-08T08:57:11;101426.22;;;23.76;60.04
77216;BME280;66210;53.282;9.864;2023-09-08T08:59:38;101421.94;;;23.88;60.19
77216;BME280;66210;53.282;9.864;2023-09-08T09:02:08;101418.50;;;23.98;58.64
77216;BME280;66210;53.282;9.864;2023-09-08T09:04:37;101415.88;;;24.01;59.30
77216;BME280;66210;53.282;9.864;2023-09-08T09:07:07;101425.44;;;24.02;59.27
77216;BME280;66210;53.282;9.864;2023-09-08T09:09:34;101428.00;;;23.99;59.68
77216;BME280;66210;53.282;9.864;2023-09-08T09:12:01;101429.75;;;24.04;59.41
77216;BME280;66210;53.282;9.864;2023-09-08T09:14:33;101424.56;;;24.06;60.11
77216;BME280;66210;53.282;9.864;2023-09-08T09:17:01;101420.22;;;24.14;59.75
77216;BME280;66210;53.282;9.864;2023-09-08T09:19:28;101421.97;;;24.29;58.57
77216;BME280;66210;53.282;9.864;2023-09-08T09:21:56;101420.25;;;24.40;57.44
77216;BME280;66210;53.282;9.864;2023-09-08T09:24:37;101420.25;;;24.53;57.76
77216;BME280;66210;53.282;9.864;2023-09-08T09:27:08;101419.38;;;24.71;56.01
77216;BME280;66210;53.282;9.864;2023-09-08T09:29:45;101415.00;;;24.96;55.32
77216;BME280;66210;53.282;9.864;2023-09-08T09:32:16;101415.81;;;25.27;55.57
77216;BME280;66210;53.282;9.864;2023-09-08T09:34:52;101412.13;;;25.66;53.14
77216;BME280;66210;53.282;9.864;2023-09-08T09:37:23;101415.44;;;25.99;51.89
77216;BME280;66210;53.282;9.864;2023-09-08T09:39:51;101414.41;;;26.23;51.78
77216;BME280;66210;53.282;9.864;2023-09-08T09:42:20;101417.69;;;26.44;51.51
77216;BME280;66210;53.282;9.864;2023-09-08T09:44:48;101410.63;;;26.60;50.14
77216;BME280;66210;53.282;9.864;2023-09-08T09:47:16;101407.88;;;26.75;50.28
77216;BME280;66210;53.282;9.864;2023-09-08T09:49:44;101405.91;;;26.94;51.13
77216;BME280;66210;53.282;9.864;2023-09-08T09:52:13;101407.44;;;27.13;48.05
77216;BME280;66210;53.282;9.864;2023-09-08T09:54:43;101408.22;;;27.20;49.09
77216;BME280;66210;53.282;9.864;2023-09-08T09:57:12;101408.06;;;27.32;47.47
77216;BME280;66210;53.282;9.864;2023-09-08T09:59:43;101410.59;;;27.40;48.13
77216;BME280;66210;53.282;9.864;2023-09-08T10:02:12;101397.66;;;27.31;48.52
77216;BME280;66210;53.282;9.864;2023-09-08T10:04:42;101395.81;;;27.39;48.36
77216;BME280;66210;53.282;9.864;2023-09-08T10:07:11;101395.47;;;27.64;47.67
77216;BME280;66210;53.282;9.864;2023-09-08T10:09:38;101389.75;;;27.99;49.94
77216;BME280;66210;53.282;9.864;2023-09-08T10:12:05;101378.72;;;28.34;49.33
77216;BME280;66210;53.282;9.864;2023-09-08T10:14:35;101372.41;;;28.48;46.92
77216;BME280;66210;53.282;9.864;2023-09-08T10:17:03;101373.56;;;28.78;47.39
77216;BME280;66210;53.282;9.864;2023-09-08T10:19:33;101369.25;;;29.20;48.37
77216;BME280;66210;53.282;9.864;2023-09-08T10:22:05;101367.50;;;29.60;46.69
77216;BME280;66210;53.282;9.864;2023-09-08T10:24:34;101372.34;;;29.77;44.08
77216;BME280;66210;53.282;9.864;2023-09-08T10:27:08;101374.97;;;29.77;44.01
77216;BME280;66210;53.282;9.864;2023-09-08T10:29:36;101362.00;;;29.71;43.11
77216;BME280;66210;53.282;9.864;2023-09-08T10:32:05;101365.53;;;29.70;44.75
77216;BME280;66210;53.282;9.864;2023-09-08T10:34:34;101369.22;;;29.59;43.15
77216;BME280;66210;53.282;9.864;2023-09-08T10:37:01;101374.16;;;29.36;43.69
77216;BME280;66210;53.282;9.864;2023-09-08T10:39:35;101368.38;;;29.20;42.96
77216;BME280;66210;53.282;9.864;2023-09-08T10:47:19;101368.78;;;28.98;44.81
77216;BME280;66210;53.282;9.864;2023-09-08T10:49:46;101374.59;;;29.14;43.29
77216;BME280;66210;53.282;9.864;2023-09-08T10:52:13;101364.84;;;29.21;42.17
77216;BME280;66210;53.282;9.864;2023-09-08T10:54:44;101372.13;;;29.07;41.70
77216;BME280;66210;53.282;9.864;2023-09-08T10:57:13;101354.34;;;29.24;43.33
77216;BME280;66210;53.282;9.864;2023-09-08T10:59:57;101361.34;;;29.61;42.76
77216;BME280;66210;53.282;9.864;2023-09-08T11:05:10;101352.19;;;29.80;41.21
77216;BME280;66210;53.282;9.864;2023-09-08T11:07:37;101354.97;;;29.74;40.69
77216;BME280;66210;53.282;9.864;2023-09-08T11:10:06;101357.81;;;29.99;40.64
77216;BME280;66210;53.282;9.864;2023-09-08T11:12:33;101349.22;;;29.94;40.54
77216;BME280;66210;53.282;9.864;2023-09-08T11:15:02;101349.13;;;29.99;40.59
77216;BME280;66210;53.282;9.864;2023-09-08T11:17:35;101349.81;;;30.05;41.25
77216;BME280;66210;53.282;9.864;2023-09-08T11:20:03;101353.50;;;30.33;41.29
77216;BME280;66210;53.282;9.864;2023-09-08T11:22:38;101349.41;;;30.55;40.40
77216;BME280;66210;53.282;9.864;2023-09-08T11:25:07;101350.88;;;30.33;38.90
77216;BME280;66210;53.282;9.864;2023-09-08T11:27:34;101343.50;;;30.13;40.56
77216;BME280;66210;53.282;9.864;2023-09-08T11:30:01;101344.69;;;30.01;41.12
77216;BME280;66210;53.282;9.864;2023-09-08T11:32:32;101330.66;;;29.69;40.45
77216;BME280;66210;53.282;9.864;2023-09-08T11:35:07;101332.97;;;29.42;40.91
77216;BME280;66210;53.282;9.864;2023-09-08T11:37:36;101333.41;;;29.24;41.73
77216;BME280;66210;53.282;9.864;2023-09-08T11:40:06;101334.63;;;29.06;41.28
77216;BME280;66210;53.282;9.864;2023-09-08T11:42:41;101338.50;;;28.88;40.68
77216;BME280;66210;53.282;9.864;2023-09-08T11:45:15;101325.84;;;28.67;41.35
77216;BME280;66210;53.282;9.864;2023-09-08T11:47:44;101332.94;;;28.60;41.05
77216;BME280;66210;53.282;9.864;2023-09-08T11:50:12;101333.16;;;28.49;41.45
77216;BME280;66210;53.282;9.864;2023-09-08T11:52:44;101329.72;;;28.46;42.33
77216;BME280;66210;53.282;9.864;2023-09-08T11:55:11;101330.59;;;28.48;40.63
77216;BME280;66210;53.282;9.864;2023-09-08T11:57:40;101331.38;;;28.51;40.44
77216;BME280;66210;53.282;9.864;2023-09-08T12:00:08;101327.72;;;28.58;40.72
77216;BME280;66210;53.282;9.864;2023-09-08T12:02:39;101316.53;;;28.52;40.53
77216;BME280;66210;53.282;9.864;2023-09-08T12:05:11;101326.97;;;28.53;39.70
77216;BME280;66210;53.282;9.864;2023-09-08T12:07:38;101322.50;;;28.58;40.10
77216;BME280;66210;53.282;9.864;2023-09-08T12:10:11;101327.53;;;28.69;40.11
77216;BME280;66210;53.282;9.864;2023-09-08T12:12:44;101328.97;;;28.84;40.25
77216;BME280;66210;53.282;9.864;2023-09-08T12:15:11;101320.81;;;28.99;39.41
77216;BME280;66210;53.282;9.864;2023-09-08T12:17:48;101317.03;;;29.14;38.25
77216;BME280;66210;53.282;9.864;2023-09-08T12:20:15;101306.66;;;29.49;40.14
77216;BME280;66210;53.282;9.864;2023-09-08T12:22:49;101319.03;;;30.14;39.91
77216;BME280;66210;53.282;9.864;2023-09-08T12:25:17;101319.16;;;30.42;36.98
77216;BME280;66210;53.282;9.864;2023-09-08T12:27:45;101315.31;;;30.55;37.22
77216;BME280;66210;53.282;9.864;2023-09-08T12:30:20;101310.22;;;30.80;37.50
77216;BME280;66210;53.282;9.864;2023-09-08T12:32:48;101301.75;;;31.02;36.92
77216;BME280;66210;53.282;9.864;2023-09-08T12:35:22;101310.81;;;31.20;37.04
77216;BME280;66210;53.282;9.864;2023-09-08T12:37:54;101293.09;;;30.98;36.35
77216;BME280;66210;53.282;9.864;2023-09-08T12:40:23;101301.84;;;30.67;37.07
77216;BME280;66210;53.282;9.864;2023-09-08T12:42:50;101294.13;;;30.32;38.21
77216;BME280;66210;53.282;9.864;2023-09-08T12:45:31;101296.00;;;29.92;38.13
77216;BME280;66210;53.282;9.864;2023-09-08T12:47:59;101294.78;;;29.71;39.29
77216;BME280;66210;53.282;9.864;2023-09-08T12:50:28;101288.94;;;29.60;38.50
77216;BME280;66210;53.282;9.864;2023-09-08T12:52:55;101279.44;;;29.54;38.39
77216;BME280;66210;53.282;9.864;2023-09-08T12:55:21;101288.34;;;29.49;38.64
77216;BME280;66210;53.282;9.864;2023-09-08T12:57:49;101272.03;;;29.37;39.46
77216;BME280;66210;53.282;9.864;2023-09-08T13:00:16;101271.34;;;29.28;40.39
77216;BME280;66210;53.282;9.864;2023-09-08T13:02:44;101276.03;;;29.15;41.16
77216;BME280;66210;53.282;9.864;2023-09-08T13:05:10;101278.78;;;29.09;41.28